createdAt,value
2019-06-10T00:01:33.013Z,21.23
2019-06-10T00:03:38.628Z,21.27
2019-06-10T00:05:44.149Z,19.07
2019-06-10T00:07:51.579Z,22.85
2019-06-10T00:09:58.088Z,20.68
2019-06-10T00:12:06.443Z,23.80
2019-06-10T00:14:12.445Z,21.82
2019-06-10T00:16:17.986Z,22.35
2019-06-10T00:18:38.306Z,21.15
2019-06-10T00:20:30.696Z,23.00
2019-06-10T00:22:36.245Z,21.42
2019-06-10T00:24:41.831Z,22.05
2019-06-10T00:26:50.866Z,25.00
2019-06-10T00:28:55.976Z,20.65
2019-06-10T00:31:03.678Z,21.55
2019-06-10T00:33:11.599Z,22.55
2019-06-10T00:35:15.900Z,20.82
2019-06-10T00:37:21.432Z,23.05
2019-06-10T00:39:26.970Z,21.37
2019-06-10T00:41:32.511Z,20.90
2019-06-10T00:43:38.031Z,19.77
2019-06-10T00:45:43.567Z,23.02
2019-06-10T00:47:52.063Z,22.52
2019-06-10T00:49:56.245Z,22.40
2019-06-10T00:52:03.964Z,21.45
2019-06-10T00:54:12.782Z,21.75
2019-06-10T00:56:16.173Z,21.90
2019-06-10T00:58:21.884Z,21.65
2019-06-10T01:00:27.341Z,21.62
2019-06-10T01:02:33.934Z,22.35
2019-06-10T01:04:40.738Z,20.43
2019-06-10T01:06:46.477Z,20.32
2019-06-10T01:08:52.075Z,24.15
2019-06-10T01:10:57.612Z,23.50
2019-06-10T01:13:03.465Z,23.38
2019-06-10T01:15:09.967Z,23.67
2019-06-10T01:17:16.280Z,24.20
2019-06-10T01:19:22.031Z,23.62
2019-06-10T01:21:27.679Z,21.95
2019-06-10T01:23:33.221Z,24.10
2019-06-10T01:25:38.739Z,24.92
2019-06-10T01:27:44.334Z,23.60
2019-06-10T01:29:51.111Z,21.90
2019-06-10T01:31:56.722Z,23.73
2019-06-10T01:34:02.236Z,23.92
2019-06-10T01:36:07.789Z,23.02
2019-06-10T01:38:16.216Z,22.20
2019-06-10T01:40:20.901Z,22.25
2019-06-10T01:42:26.489Z,24.27
2019-06-10T01:44:32.013Z,23.45
2019-06-10T01:46:37.544Z,23.75
2019-06-10T01:48:47.861Z,22.87
2019-06-10T01:50:51.241Z,25.72
2019-06-10T01:52:56.936Z,23.30
2019-06-10T01:55:02.496Z,22.27
2019-06-10T01:57:08.006Z,26.57
2019-06-10T01:59:15.169Z,22.80
2019-06-10T02:01:23.437Z,25.77
2019-06-10T02:03:31.434Z,24.25
2019-06-10T02:05:36.350Z,22.70
2019-06-10T02:07:41.885Z,21.73
2019-06-10T02:09:47.411Z,25.12
2019-06-10T02:11:53.032Z,24.85
2019-06-10T02:14:00.806Z,22.65
2019-06-10T02:16:05.873Z,23.92
2019-06-10T02:18:13.528Z,21.85
2019-06-10T02:20:22.573Z,26.07
2019-06-10T02:22:25.896Z,23.75
2019-06-10T02:24:31.728Z,23.85
2019-06-10T02:26:37.282Z,24.90
2019-06-10T02:28:42.805Z,27.35
2019-06-10T02:30:51.969Z,24.72
2019-06-10T02:32:55.569Z,22.93
2019-06-10T02:35:08.821Z,22.65
2019-06-10T02:37:08.425Z,22.10
2019-06-10T02:39:21.439Z,26.12
2019-06-10T02:41:31.078Z,22.13
2019-06-10T02:43:35.792Z,24.65
2019-06-10T02:45:37.811Z,22.15
2019-06-10T02:47:44.302Z,22.73
2019-06-10T02:50:01.513Z,22.48
2019-06-10T02:51:57.381Z,22.32
2019-06-10T02:54:04.768Z,25.90
2019-06-10T02:56:12.445Z,23.73
2019-06-10T02:58:19.152Z,23.85
2019-06-10T03:00:36.836Z,23.90
2019-06-10T03:02:36.066Z,22.13
2019-06-10T03:04:39.087Z,23.90
2019-06-10T03:06:45.141Z,20.65
2019-06-10T03:08:54.606Z,23.02
2019-06-10T03:10:57.994Z,23.38
2019-06-10T03:13:03.786Z,20.02
2019-06-10T03:15:09.432Z,23.10
2019-06-10T03:17:17.719Z,24.32
2019-06-10T03:19:38.396Z,21.33
2019-06-10T03:21:32.315Z,22.48
2019-06-10T03:23:37.551Z,23.98
2019-06-10T03:25:44.141Z,25.00
2019-06-10T03:27:49.734Z,21.77
2019-06-10T03:29:55.280Z,23.52
2019-06-10T03:32:04.559Z,22.95
2019-06-10T03:34:07.962Z,24.00
2019-06-10T03:36:13.498Z,22.73
2019-06-10T03:38:20.317Z,28.67
2019-06-10T03:40:27.644Z,22.90
2019-06-10T03:42:33.414Z,25.43
2019-06-10T03:44:38.928Z,24.37
2019-06-10T03:46:44.459Z,25.35
2019-06-10T03:48:52.471Z,24.25
2019-06-10T03:50:57.160Z,25.72
2019-06-10T03:53:04.369Z,24.25
2019-06-10T03:55:12.243Z,26.55
2019-06-10T03:57:17.533Z,25.43
2019-06-10T03:59:24.652Z,23.60
2019-06-10T04:01:30.247Z,23.38
2019-06-10T04:03:35.902Z,23.55
2019-06-10T04:05:42.333Z,25.82
2019-06-10T04:07:48.072Z,25.88
2019-06-10T04:09:53.607Z,23.92
2019-06-10T04:11:59.137Z,24.35
2019-06-10T04:14:04.826Z,23.02
2019-06-10T04:16:12.786Z,24.12
2019-06-10T04:18:17.883Z,23.80
2019-06-10T04:20:27.489Z,22.52
2019-06-10T04:22:32.803Z,22.13
2019-06-10T04:24:37.740Z,24.72
2019-06-10T04:26:43.655Z,23.75
2019-06-10T04:28:49.316Z,24.77
2019-06-10T04:30:54.844Z,22.13
2019-06-10T04:33:02.303Z,25.85
2019-06-10T04:35:08.065Z,30.68
2019-06-10T04:37:13.603Z,24.82
2019-06-10T04:39:20.413Z,23.57
2019-06-10T04:41:27.712Z,27.55
2019-06-10T04:43:33.444Z,25.57
2019-06-10T04:45:39.056Z,21.77
2019-06-10T04:47:44.569Z,28.05
2019-06-10T04:49:52.139Z,22.67
2019-06-10T04:51:57.376Z,23.27
2019-06-10T04:54:03.331Z,24.63
2019-06-10T04:56:08.857Z,24.10
2019-06-10T04:58:14.468Z,24.80
2019-06-10T05:00:23.469Z,26.80
2019-06-10T05:02:28.943Z,20.48
2019-06-10T05:04:34.693Z,25.17
2019-06-10T05:06:42.234Z,24.12
2019-06-10T05:08:47.397Z,22.35
2019-06-10T05:10:53.025Z,20.77
2019-06-10T05:12:58.638Z,22.52
2019-06-10T05:15:07.447Z,27.10
2019-06-10T05:17:14.049Z,23.98
2019-06-10T05:19:19.856Z,20.45
2019-06-10T05:21:28.012Z,24.30
2019-06-10T05:23:33.107Z,21.02
2019-06-10T05:25:38.890Z,24.50
2019-06-10T05:27:44.446Z,22.73
2019-06-10T05:29:49.971Z,22.30
2019-06-10T05:31:55.507Z,24.02
2019-06-10T05:34:02.399Z,20.32
2019-06-10T05:36:08.088Z,18.70
2019-06-10T05:38:13.615Z,20.97
2019-06-10T05:40:19.317Z,23.07
2019-06-10T05:42:26.094Z,21.37
2019-06-10T05:44:34.422Z,19.92
2019-06-10T05:46:39.198Z,23.30
2019-06-10T05:48:44.721Z,23.27
2019-06-10T05:51:00.091Z,21.48
2019-06-10T05:52:57.410Z,21.57
2019-06-10T05:55:03.058Z,20.48
2019-06-10T05:57:08.533Z,20.43
2019-06-10T05:59:14.088Z,23.52
2019-06-10T06:01:19.602Z,21.33
2019-06-10T06:03:25.704Z,19.70
2019-06-10T06:05:33.277Z,19.20
2019-06-10T06:07:38.450Z,20.85
2019-06-10T06:09:43.994Z,20.88
2019-06-10T06:11:49.535Z,21.57
2019-06-10T06:13:55.079Z,21.15
2019-06-10T06:16:03.040Z,21.70
2019-06-10T06:18:10.589Z,20.37
2019-06-10T06:20:15.684Z,22.48
2019-06-10T06:22:22.111Z,21.95
2019-06-10T06:24:27.752Z,20.52
2019-06-10T06:26:36.496Z,21.82
2019-06-10T06:28:43.000Z,21.93
2019-06-10T06:30:47.649Z,21.70
2019-06-10T06:32:53.350Z,19.67
2019-06-10T06:34:58.890Z,17.55
2019-06-10T06:37:04.583Z,22.17
2019-06-10T06:39:12.652Z,23.87
2019-06-10T06:41:17.407Z,21.95
2019-06-10T06:43:22.944Z,19.95
2019-06-10T06:45:29.632Z,24.37
2019-06-10T06:47:36.087Z,21.20
2019-06-10T06:49:43.437Z,22.17
2019-06-10T06:51:55.195Z,18.42
2019-06-10T06:53:56.553Z,20.05
2019-06-10T06:56:03.679Z,16.62
2019-06-10T06:58:09.217Z,23.25
2019-06-10T07:00:41.069Z,33.65
2019-06-10T07:02:23.029Z,16.97
2019-06-10T07:04:29.647Z,18.45
2019-06-10T07:06:37.120Z,21.80
2019-06-10T07:09:00.357Z,20.57
2019-06-10T07:10:54.413Z,18.57
2019-06-10T07:13:05.853Z,15.18
2019-06-10T07:15:12.842Z,21.37
2019-06-10T07:17:18.356Z,15.90
2019-06-10T07:19:23.887Z,22.25
2019-06-10T07:21:29.494Z,22.00
2019-06-10T07:23:38.872Z,19.35
2019-06-10T07:25:46.522Z,18.02
2019-06-10T07:27:49.349Z,19.45
2019-06-10T07:29:54.870Z,19.05
2019-06-10T07:32:03.204Z,16.05
2019-06-10T07:34:07.555Z,17.05
2019-06-10T07:36:14.226Z,16.05
2019-06-10T07:38:22.312Z,21.33
2019-06-10T07:40:26.929Z,15.35
2019-06-10T07:42:33.253Z,18.02
2019-06-10T07:44:39.607Z,20.50
2019-06-10T07:46:45.677Z,18.95
2019-06-10T07:48:55.693Z,18.70
2019-06-10T07:50:58.425Z,20.10
2019-06-10T07:53:03.952Z,23.67
2019-06-10T07:55:09.605Z,14.98
2019-06-10T07:57:15.128Z,14.83
2019-06-10T07:59:23.182Z,16.85
2019-06-10T08:01:27.868Z,16.17
2019-06-10T08:03:35.316Z,18.70
2019-06-10T08:05:43.239Z,14.55
2019-06-10T08:07:49.009Z,14.87
2019-06-10T08:09:54.705Z,14.05
2019-06-10T08:12:03.487Z,18.05
2019-06-10T08:14:07.463Z,19.17
2019-06-10T08:16:13.399Z,16.57
2019-06-10T08:18:22.396Z,17.95
2019-06-10T08:20:45.604Z,17.55
2019-06-10T08:24:57.484Z,15.00
2019-06-10T08:27:03.032Z,15.72
2019-06-10T08:29:08.571Z,13.72
2019-06-10T08:31:14.087Z,18.25
2019-06-10T08:33:22.451Z,15.93
2019-06-10T08:35:38.322Z,18.55
2019-06-10T08:37:33.907Z,16.97
2019-06-10T08:39:40.203Z,14.55
2019-06-10T08:41:49.091Z,19.57
2019-06-10T08:43:53.913Z,14.73
2019-06-10T08:46:02.572Z,17.75
2019-06-10T08:48:07.676Z,14.45
2019-06-10T08:50:13.468Z,14.33
2019-06-10T08:52:19.065Z,15.75
2019-06-10T08:54:24.622Z,13.90
2019-06-10T08:56:32.583Z,13.85
2019-06-10T08:58:38.482Z,12.80
2019-06-10T09:00:46.631Z,14.38
2019-06-10T09:02:53.911Z,13.45
2019-06-10T09:04:59.114Z,15.08
2019-06-10T09:07:04.821Z,13.75
2019-06-10T09:09:12.897Z,13.68
2019-06-10T09:11:21.178Z,13.30
2019-06-10T09:13:26.103Z,13.05
2019-06-10T09:15:32.483Z,19.65
2019-06-10T09:17:39.709Z,13.85
2019-06-10T09:19:48.808Z,17.23
2019-06-10T09:21:56.397Z,11.35
2019-06-10T09:24:03.788Z,11.90
2019-06-10T09:26:07.955Z,27.85
2019-06-10T09:28:13.476Z,21.93
2019-06-10T09:30:22.682Z,11.38
2019-06-10T09:32:28.800Z,14.20
2019-06-10T09:34:34.328Z,12.88
2019-06-10T09:36:41.196Z,11.38
2019-06-10T09:38:49.098Z,11.63
2019-06-10T09:41:01.271Z,14.18
2019-06-10T09:43:02.467Z,12.70
2019-06-10T09:45:12.826Z,15.28
2019-06-10T09:47:18.122Z,13.62
2019-06-10T09:49:25.574Z,14.00
2019-06-10T09:51:32.373Z,14.20
2019-06-10T09:53:42.774Z,10.45
2019-06-10T09:55:49.101Z,10.75
2019-06-10T09:57:59.769Z,11.65
2019-06-10T10:00:03.082Z,11.80
2019-06-10T10:02:08.253Z,13.38
2019-06-10T10:04:14.245Z,11.40
2019-06-10T10:06:19.754Z,15.32
2019-06-10T10:08:25.439Z,16.32
2019-06-10T10:10:36.464Z,11.03
2019-06-10T10:12:44.419Z,12.28
2019-06-10T10:14:51.228Z,11.40
2019-06-10T10:17:00.321Z,14.20
2019-06-10T10:19:05.299Z,10.78
2019-06-10T10:21:13.059Z,12.30
2019-06-10T10:23:18.553Z,11.05
2019-06-10T10:25:24.095Z,13.22
2019-06-10T10:27:32.180Z,12.13
2019-06-10T10:29:36.806Z,10.05
2019-06-10T10:31:45.035Z,13.22
2019-06-10T10:33:50.575Z,11.45
2019-06-10T10:35:56.276Z,12.10
2019-06-10T10:38:03.903Z,11.50
2019-06-10T10:40:09.202Z,12.43
2019-06-10T10:42:14.745Z,12.03
2019-06-10T10:44:20.276Z,12.63
2019-06-10T10:46:25.831Z,11.25
2019-06-10T10:48:34.077Z,10.55
2019-06-10T10:50:38.541Z,15.70
2019-06-10T10:52:46.120Z,15.00
2019-06-10T10:54:54.011Z,10.50
2019-06-10T10:56:59.330Z,12.95
2019-06-10T10:59:05.160Z,11.28
2019-06-10T11:01:14.578Z,10.08
2019-06-10T11:03:18.351Z,12.45
2019-06-10T11:05:34.993Z,12.82
2019-06-10T11:07:42.313Z,21.15
2019-06-10T11:09:50.235Z,9.75
2019-06-10T11:11:58.406Z,11.12
2019-06-10T11:14:04.324Z,12.88
2019-06-10T11:16:09.851Z,13.15
2019-06-10T11:18:19.529Z,10.38
2019-06-10T11:20:25.060Z,11.95
2019-06-10T11:22:32.745Z,11.50
2019-06-10T11:24:42.054Z,11.88
2019-06-10T11:26:45.785Z,11.45
2019-06-10T11:28:54.411Z,16.45
2019-06-10T11:30:58.770Z,13.20
2019-06-10T11:33:04.529Z,11.10
2019-06-10T11:35:12.175Z,13.40
2019-06-10T11:37:17.813Z,11.70
2019-06-10T11:39:23.336Z,12.85
2019-06-10T11:41:28.883Z,11.97
2019-06-10T11:43:34.420Z,15.88
2019-06-10T11:45:45.714Z,11.68
2019-06-10T11:47:47.346Z,11.35
2019-06-10T11:49:54.955Z,11.05
2019-06-10T11:52:00.078Z,11.55
2019-06-10T11:54:06.093Z,15.20
2019-06-10T11:56:13.031Z,11.10
2019-06-10T11:58:18.822Z,11.55
2019-06-10T12:00:26.276Z,10.82
2019-06-10T12:02:32.930Z,12.47
2019-06-10T12:04:39.036Z,10.55
2019-06-10T12:06:44.536Z,11.43
2019-06-10T12:08:54.082Z,10.32
2019-06-10T12:11:00.459Z,14.80
2019-06-10T12:13:07.260Z,10.75
2019-06-10T12:15:13.863Z,13.75
2019-06-10T12:17:34.725Z,11.33
2019-06-10T12:19:26.588Z,10.40
2019-06-10T12:21:33.089Z,13.93
2019-06-10T12:23:38.826Z,10.40
2019-06-10T12:25:47.793Z,11.60
2019-06-10T12:27:55.233Z,10.00
2019-06-10T12:29:59.948Z,14.53
2019-06-10T12:32:07.504Z,17.32
2019-06-10T12:34:13.065Z,10.32
2019-06-10T12:36:18.602Z,14.55
2019-06-10T12:38:24.149Z,10.82
2019-06-10T12:40:29.863Z,10.53
2019-06-10T12:42:35.387Z,13.13
2019-06-10T12:44:42.900Z,12.85
2019-06-10T12:46:48.100Z,13.50
2019-06-10T12:48:57.562Z,11.20
2019-06-10T12:51:05.729Z,10.90
2019-06-10T12:53:08.116Z,15.48
2019-06-10T12:55:14.013Z,11.12
2019-06-10T12:57:19.548Z,10.13
2019-06-10T12:59:25.086Z,13.72
2019-06-10T13:01:32.996Z,11.78
2019-06-10T13:03:37.883Z,9.73
2019-06-10T13:05:44.116Z,10.82
2019-06-10T13:07:50.908Z,11.93
2019-06-10T13:09:57.807Z,10.28
2019-06-10T13:12:04.070Z,9.93
2019-06-10T13:14:09.662Z,9.60
2019-06-10T13:16:16.153Z,10.50
2019-06-10T13:18:23.886Z,12.40
2019-06-10T13:20:28.972Z,11.45
2019-06-10T13:22:34.504Z,14.83
2019-06-10T13:24:42.212Z,11.55
2019-06-10T13:26:47.225Z,9.63
2019-06-10T13:28:53.723Z,10.15
2019-06-10T13:30:59.268Z,9.85
2019-06-10T13:33:10.423Z,13.08
2019-06-10T13:35:12.587Z,10.65
2019-06-10T13:37:18.234Z,10.65
2019-06-10T13:39:26.887Z,10.68
2019-06-10T13:41:33.295Z,15.78
2019-06-10T13:43:38.054Z,12.78
2019-06-10T13:45:43.716Z,11.38
2019-06-10T13:47:49.234Z,11.10
2019-06-10T13:50:09.293Z,10.00
2019-06-10T13:52:16.824Z,10.55
2019-06-10T13:54:22.563Z,12.70
2019-06-10T13:56:42.962Z,11.30
2019-06-10T13:58:36.281Z,12.58
2019-06-10T14:00:46.287Z,11.43
2019-06-10T14:02:49.106Z,10.88
2019-06-10T14:04:54.621Z,13.60
2019-06-10T14:07:01.501Z,10.55
2019-06-10T14:09:10.062Z,10.28
2019-06-10T14:11:14.468Z,10.82
2019-06-10T14:13:20.077Z,13.38
2019-06-10T14:15:25.608Z,12.20
2019-06-10T14:17:32.880Z,9.90
2019-06-10T14:19:38.278Z,10.95
2019-06-10T14:21:44.007Z,10.30
2019-06-10T14:23:49.599Z,12.30
2019-06-10T14:25:55.116Z,12.43
2019-06-10T14:28:03.203Z,12.30
2019-06-10T14:30:09.578Z,10.68
2019-06-10T14:32:15.781Z,13.72
2019-06-10T14:34:22.515Z,10.05
2019-06-10T14:36:28.275Z,11.88
2019-06-10T14:38:33.805Z,12.58
2019-06-10T14:40:39.304Z,12.00
2019-06-10T14:42:44.812Z,13.28
2019-06-10T14:44:52.532Z,11.45
2019-06-10T14:46:57.536Z,12.80
2019-06-10T14:49:03.129Z,12.53
2019-06-10T14:51:08.882Z,12.28
2019-06-10T14:53:16.801Z,11.03
2019-06-10T14:55:23.226Z,10.78
2019-06-10T14:57:28.881Z,14.07
2019-06-10T14:59:34.405Z,10.28
2019-06-10T15:01:39.931Z,12.68
2019-06-10T15:03:45.457Z,13.85
2019-06-10T15:05:52.917Z,14.30
2019-06-10T15:07:58.265Z,10.75
2019-06-10T15:10:05.362Z,10.65
2019-06-10T15:12:11.667Z,10.48
2019-06-10T15:14:18.000Z,11.38
2019-06-10T15:16:23.934Z,12.90
2019-06-10T15:18:29.529Z,11.00
2019-06-10T15:20:35.111Z,11.38
2019-06-10T15:22:42.998Z,12.35
2019-06-10T15:24:47.927Z,10.55
2019-06-10T15:27:09.128Z,11.97
2019-06-10T15:29:02.786Z,10.48
2019-06-10T15:31:08.245Z,13.40
2019-06-10T15:33:16.589Z,13.80
2019-06-10T15:35:23.981Z,12.68
2019-06-10T15:37:29.038Z,11.60
2019-06-10T15:39:34.632Z,11.28
2019-06-10T15:41:42.895Z,15.10
2019-06-10T15:43:49.597Z,10.78
2019-06-10T15:45:55.149Z,11.88
2019-06-10T15:48:02.533Z,16.70
2019-06-10T15:50:08.257Z,9.98
2019-06-10T15:52:17.154Z,11.40
2019-06-10T15:54:25.311Z,12.18
2019-06-10T15:56:44.689Z,15.43
2019-06-10T15:58:36.281Z,11.48
2019-06-10T16:00:42.591Z,14.47
2019-06-10T16:02:48.260Z,13.05
2019-06-10T16:04:53.792Z,16.93
2019-06-10T16:06:59.319Z,13.48
2019-06-10T16:09:07.318Z,13.22
2019-06-10T16:11:16.300Z,11.90
2019-06-10T16:13:21.358Z,11.43
2019-06-10T16:15:27.453Z,14.23
2019-06-10T16:17:34.568Z,14.30
2019-06-10T16:19:40.124Z,11.30
2019-06-10T16:21:45.904Z,11.55
2019-06-10T16:23:53.339Z,11.33
2019-06-10T16:25:58.584Z,13.80
2019-06-10T16:28:04.174Z,12.18
2019-06-10T16:30:10.271Z,11.73
2019-06-10T16:32:16.356Z,11.50
2019-06-10T16:34:25.044Z,16.12
2019-06-10T16:36:32.025Z,14.13
2019-06-10T16:38:37.085Z,12.35
2019-06-10T16:40:43.171Z,14.38
2019-06-10T16:42:48.776Z,12.15
2019-06-10T16:44:54.317Z,14.93
2019-06-10T16:46:59.865Z,14.58
2019-06-10T16:49:05.568Z,14.58
2019-06-10T16:51:13.314Z,12.30
2019-06-10T16:53:19.879Z,15.98
2019-06-10T16:55:27.298Z,16.05
2019-06-10T16:57:33.410Z,13.80
2019-06-10T16:59:39.164Z,13.72
2019-06-10T17:01:44.840Z,15.28
2019-06-10T17:03:52.449Z,14.65
2019-06-10T17:05:57.520Z,17.10
2019-06-10T17:08:03.353Z,16.27
2019-06-10T17:10:12.550Z,16.00
2019-06-10T17:12:17.791Z,16.17
2019-06-10T17:14:25.991Z,19.00
2019-06-10T17:16:30.603Z,12.95
2019-06-10T17:18:36.132Z,14.15
2019-06-10T17:20:43.030Z,13.13
2019-06-10T17:22:48.649Z,13.95
2019-06-10T17:24:54.167Z,15.48
2019-06-10T17:27:02.465Z,13.43
2019-06-10T17:29:07.040Z,13.50
2019-06-10T17:31:12.657Z,15.75
2019-06-10T17:33:18.378Z,15.38
2019-06-10T17:35:24.146Z,14.55
2019-06-10T17:37:31.279Z,21.68
2019-06-10T17:39:36.903Z,29.07
2019-06-10T17:41:42.839Z,38.98
2019-06-10T17:43:48.408Z,27.40
2019-06-10T17:45:55.097Z,23.80
2019-06-10T17:48:02.965Z,24.27
2019-06-10T17:50:08.908Z,18.82
2019-06-10T17:52:14.542Z,17.27
2019-06-10T17:54:22.083Z,18.75
2019-06-10T17:56:28.228Z,18.10
2019-06-10T17:58:50.294Z,15.05
2019-06-10T18:00:42.231Z,18.73
2019-06-10T18:02:47.869Z,18.55
2019-06-10T18:04:53.430Z,23.40
2019-06-10T18:06:58.969Z,21.45
2019-06-10T18:09:06.289Z,23.27
2019-06-10T18:11:12.845Z,21.50
2019-06-10T18:13:18.579Z,27.90
2019-06-10T18:15:24.192Z,33.48
2019-06-10T18:17:31.172Z,33.63
2019-06-10T18:19:37.562Z,34.30
2019-06-10T18:21:43.993Z,29.63
2019-06-10T18:23:49.616Z,24.72
2019-06-10T18:25:55.265Z,25.00
2019-06-10T18:28:02.794Z,28.92
2019-06-10T18:30:11.500Z,33.45
2019-06-10T18:32:15.885Z,24.57
2019-06-10T18:34:22.650Z,27.50
2019-06-10T18:36:28.497Z,26.62
2019-06-10T18:38:36.803Z,32.70
2019-06-10T18:40:42.867Z,27.90
2019-06-10T18:42:48.540Z,22.40
2019-06-10T18:44:54.058Z,29.00
2019-06-10T18:47:02.806Z,36.90
2019-06-10T18:49:07.844Z,34.10
2019-06-10T18:51:13.356Z,31.10
2019-06-10T18:53:18.896Z,41.18
2019-06-10T18:55:24.613Z,30.62
2019-06-10T18:57:30.639Z,31.15
2019-06-10T18:59:38.317Z,27.52
2019-06-10T19:01:44.216Z,27.65
2019-06-10T19:03:49.745Z,30.12
2019-06-10T19:05:55.422Z,31.80
2019-06-10T19:08:02.450Z,26.37
2019-06-10T19:10:09.114Z,25.02
2019-06-10T19:12:14.674Z,23.95
2019-06-10T19:14:20.233Z,30.82
2019-06-10T19:16:25.765Z,25.68
2019-06-10T19:18:31.881Z,30.25
2019-06-10T19:20:39.178Z,27.42
2019-06-10T19:22:44.767Z,24.85
2019-06-10T19:24:52.819Z,24.70
2019-06-10T19:27:01.330Z,24.30
2019-06-10T19:29:04.804Z,27.32
2019-06-10T19:31:10.352Z,31.75
2019-06-10T19:33:15.944Z,38.33
2019-06-10T19:35:22.373Z,25.55
2019-06-10T19:37:28.018Z,23.65
2019-06-10T19:39:40.301Z,35.88
2019-06-10T19:41:46.641Z,24.02
2019-06-10T19:43:47.976Z,24.70
2019-06-10T19:45:53.652Z,24.70
2019-06-10T19:47:59.181Z,31.93
2019-06-10T19:50:07.246Z,25.70
2019-06-10T19:52:13.023Z,27.22
2019-06-10T19:54:18.580Z,34.03
2019-06-10T19:56:26.390Z,27.77
2019-06-10T19:58:32.309Z,36.30
2019-06-10T20:00:39.214Z,33.05
2019-06-10T20:02:46.911Z,27.48
2019-06-10T20:04:52.778Z,25.05
2019-06-10T20:06:58.464Z,31.33
2019-06-10T20:09:08.577Z,28.05
2019-06-10T20:11:14.222Z,30.92
2019-06-10T20:13:19.836Z,24.50
2019-06-10T20:15:25.918Z,31.93
2019-06-10T20:17:32.781Z,26.33
2019-06-10T20:19:38.399Z,30.23
2019-06-10T20:21:46.506Z,34.05
2019-06-10T20:23:53.060Z,30.50
2019-06-10T20:25:58.301Z,30.37
2019-06-10T20:28:03.929Z,35.23
2019-06-10T20:30:24.151Z,30.50
2019-06-10T20:32:22.568Z,30.05
2019-06-10T20:34:27.525Z,34.80
2019-06-10T20:36:33.508Z,30.80
2019-06-10T20:38:40.055Z,28.75
2019-06-10T20:40:46.038Z,28.60
2019-06-10T20:42:52.746Z,26.87
2019-06-10T20:44:58.267Z,30.00
2019-06-10T20:47:03.977Z,24.37
2019-06-10T20:49:13.371Z,26.20
2019-06-10T20:51:17.811Z,20.77
2019-06-10T20:53:23.365Z,24.30
2019-06-10T20:55:40.534Z,26.05
2019-06-10T20:57:50.068Z,22.62
2019-06-10T20:59:45.246Z,21.55
2019-06-10T21:01:51.404Z,19.35
2019-06-10T21:03:57.709Z,19.20
2019-06-10T21:06:03.796Z,16.87
2019-06-10T21:08:09.362Z,17.55
2019-06-10T21:10:17.996Z,17.30
2019-06-10T21:12:23.520Z,16.52
2019-06-10T21:14:29.157Z,19.90
2019-06-10T21:16:34.710Z,17.77
2019-06-10T21:18:40.330Z,16.48
2019-06-10T21:20:49.240Z,17.42
2019-06-10T21:22:53.620Z,20.35
2019-06-10T21:24:59.244Z,21.05
2019-06-10T21:27:05.860Z,17.50
2019-06-10T21:29:12.851Z,22.02
2019-06-10T21:31:18.647Z,20.88
2019-06-10T21:33:24.200Z,17.15
2019-06-10T21:35:29.744Z,18.60
2019-06-10T21:37:35.297Z,19.65
2019-06-10T21:39:43.780Z,23.25
2019-06-10T21:41:48.256Z,21.57
2019-06-10T21:43:59.145Z,18.62
2019-06-10T21:46:03.367Z,24.43
2019-06-10T21:48:08.252Z,27.67
2019-06-10T21:50:14.161Z,36.10
2019-06-10T21:52:19.726Z,33.83
2019-06-10T21:54:25.380Z,37.93
2019-06-10T21:56:32.786Z,33.75
2019-06-10T21:58:38.103Z,32.50
2019-06-10T22:01:03.424Z,37.10
2019-06-10T22:02:58.698Z,29.85
2019-06-10T22:05:06.580Z,35.25
2019-06-10T22:07:12.121Z,31.17
2019-06-10T22:09:18.761Z,33.75
2019-06-10T22:11:24.360Z,32.23
2019-06-10T22:13:29.919Z,29.57
2019-06-10T22:15:35.491Z,37.10
2019-06-10T22:17:42.569Z,32.85
2019-06-10T22:19:48.554Z,34.15
2019-06-10T22:21:56.480Z,37.33
2019-06-10T22:24:02.207Z,33.53
2019-06-10T22:26:08.160Z,28.20
2019-06-10T22:28:15.060Z,32.50
2019-06-10T22:30:22.730Z,32.65
2019-06-10T22:32:27.892Z,28.87
2019-06-10T22:34:33.414Z,22.55
2019-06-10T22:36:38.945Z,24.90
2019-06-10T22:38:45.750Z,23.02
2019-06-10T22:40:53.640Z,31.62
2019-06-10T22:42:59.532Z,24.65
2019-06-10T22:45:06.895Z,29.52
2019-06-10T22:47:12.440Z,34.88
2019-06-10T22:49:17.992Z,32.83
2019-06-10T22:51:23.597Z,35.28
2019-06-10T22:53:29.140Z,33.15
2019-06-10T22:55:34.759Z,30.88
2019-06-10T22:57:43.740Z,23.12
2019-06-10T22:59:48.592Z,25.85
2019-06-10T23:01:56.286Z,23.57
2019-06-10T23:04:03.881Z,27.22
2019-06-10T23:06:08.605Z,26.75
2019-06-10T23:08:14.183Z,22.25
2019-06-10T23:10:19.853Z,25.75
2019-06-10T23:12:25.481Z,26.77
2019-06-10T23:14:33.067Z,24.45
2019-06-10T23:16:38.186Z,24.67
2019-06-10T23:18:43.721Z,22.48
2019-06-10T23:20:49.340Z,21.35
2019-06-10T23:22:57.164Z,25.95
2019-06-10T23:25:02.808Z,26.52
2019-06-10T23:27:09.246Z,23.73
2019-06-10T23:29:14.775Z,21.52
2019-06-10T23:31:20.308Z,20.85
2019-06-10T23:33:25.827Z,22.48
2019-06-10T23:35:32.334Z,18.98
2019-06-10T23:37:38.021Z,21.60
2019-06-10T23:39:43.545Z,22.48
2019-06-10T23:41:49.076Z,19.65
2019-06-10T23:43:55.049Z,21.52
2019-06-10T23:46:01.962Z,20.60
2019-06-10T23:48:07.924Z,20.27
2019-06-10T23:50:13.525Z,20.77
2019-06-10T23:52:19.043Z,19.00
2019-06-10T23:54:24.597Z,17.75
2019-06-10T23:56:32.490Z,18.15
2019-06-10T23:58:37.418Z,19.52
